This is the latest recevied weather packets stored in our database for station/object N4ZIQ. If no packets are shown the sender has not sent any weather packets the latest 10 day(s).
| Time | Temp. | Humidity | Pressure | Rain* | Wind** | Luminosity | Snow |
|---|---|---|---|---|---|---|---|
| 1778192154 | 30.56° C | 52% | 1012.8 hPa | 0 mm | - | 278 W/m² | - |
| 1778191846 | 30.56° C | 55% | 1012.7 hPa | 0 mm | - | 243 W/m² | - |
| 1778191546 | 32.22° C | 47% | 1012.8 hPa | 0 mm | - | 309 W/m² | - |
| 1778191257 | 32.78° C | 47% | 1012.7 hPa | 0 mm | - | 325 W/m² | - |
| 1778190947 | 32.78° C | 47% | 1013 hPa | 0 mm | - | 341 W/m² | - |
| 1778190647 | 33.89° C | 43% | 1012.9 hPa | 0 mm | - | 360 W/m² | - |
| 1778190353 | 33.89° C | 42% | 1012.9 hPa | 0 mm | - | 374 W/m² | - |
| 1778190048 | 33.89° C | 43% | 1012.9 hPa | 0 mm | - | 390 W/m² | - |
| 1778189744 | 33.89° C | 43% | 1012.9 hPa | 0 mm | - | 401 W/m² | - |
| 1778189454 | 33.89° C | 43% | 1012.9 hPa | 0 mm | - | 418 W/m² | - |
| 1778189148 | 33.89° C | 43% | 1013 hPa | 0 mm | - | 436 W/m² | - |
| 1778188849 | 33.89° C | 43% | 1013.1 hPa | 0 mm | - | 452 W/m² | - |
| 1778188578 | 33.89° C | 44% | 1013 hPa | 0 mm | - | 464 W/m² | - |
| 1778188248 | 33.89° C | 43% | 1012.9 hPa | 0 mm | - | 483 W/m² | - |
| 1778187948 | 33.89° C | 43% | 1013.1 hPa | 0 mm | - | 494 W/m² | - |
| 1778187654 | 33.89° C | 44% | 1013.2 hPa | 0 mm | - | 501 W/m² | - |
| 1778187347 | 33.89° C | 44% | 1013.2 hPa | 0 mm | - | 522 W/m² | - |
| 1778187045 | 33.89° C | 44% | 1013.3 hPa | 0 mm | - | 538 W/m² | - |
| 1778186757 | 33.89° C | 45% | 1013.3 hPa | 0 mm | - | 550 W/m² | - |
| 1778186444 | 33.89° C | 45% | 1013.4 hPa | 0 mm | - | 559 W/m² | - |
| 1778186144 | 33.89° C | 46% | 1013.4 hPa | 0 mm | - | 573 W/m² | - |
| 1778185852 | 33.89° C | 45% | 1013.4 hPa | 0 mm | - | 591 W/m² | - |
| 1778185544 | 33.89° C | 46% | 1013.4 hPa | 0 mm | - | 606 W/m² | - |
| 1778185248 | 33.89° C | 46% | 1013.4 hPa | 0 mm | - | 621 W/m² | - |
| 1778184970 | 33.89° C | 46% | 1013.5 hPa | 0 mm | - | 631 W/m² | - |
* Rain latest hour (hover to see other rain measurements)
** Current wind speed in m/s (hover to see current wind gust speed)